Time;durP1;ratioP1;P1;durP2;ratioP2;P2;SDS_P1;SDS_P2;PMS_P1;PMS_P2;Temp;Humidity;BMP_temperature;BMP_pressure;BME280_temperature;BME280_humidity;BME280_pressure;Samples;Min_cycle;Max_cycle;Signal;HPM_P1;HPM_P2
2022/12/26 00:01:34;;;;;;;30.05;26.08;;;23.20;78.50;;;;;;6275122;27;89977;-70
2022/12/26 00:04:36;;;;;;;29.08;24.38;;;23.20;78.50;;;;;;6279646;27;88929;-71
2022/12/26 00:07:38;;;;;;;28.88;23.35;;;23.20;78.60;;;;;;6276608;27;87215;-71
2022/12/26 00:10:41;;;;;;;25.35;22.60;;;23.20;78.60;;;;;;6271114;27;88941;-72
2022/12/26 00:13:44;;;;;;;25.95;21.58;;;23.20;78.30;;;;;;6279828;27;87969;-72
2022/12/26 00:16:46;;;;;;;23.73;20.48;;;23.20;78.30;;;;;;6269610;27;90011;-71
2022/12/26 00:19:48;;;;;;;25.58;19.55;;;23.20;79.10;;;;;;6271377;27;88803;-70
2022/12/26 00:22:50;;;;;;;21.00;18.42;;;23.10;77.90;;;;;;6272574;27;89173;-70
2022/12/26 00:25:54;;;;;;;21.67;17.90;;;23.10;77.70;;;;;;6279313;27;87943;-70
2022/12/26 00:28:59;;;;;;;18.45;16.42;;;23.10;77.40;;;;;;6277449;27;89062;-70
2022/12/26 00:32:01;;;;;;;21.75;16.45;;;23.10;77.10;;;;;;6260683;27;89195;-70
2022/12/26 00:35:03;;;;;;;22.63;16.00;;;23.10;76.90;;;;;;6279071;27;89145;-70
2022/12/26 00:38:06;;;;;;;19.73;14.70;;;23.10;77.10;;;;;;6277506;27;88571;-70
2022/12/26 00:41:11;;;;;;;15.95;13.35;;;23.10;76.60;;;;;;6272892;27;89292;-70
2022/12/26 00:44:13;;;;;;;14.80;12.57;;;23.10;75.60;;;;;;6276550;27;89052;-70
2022/12/26 00:47:15;;;;;;;14.30;11.60;;;23.10;75.00;;;;;;6279461;27;89845;-70
2022/12/26 00:50:17;;;;;;;14.90;12.30;;;23.00;74.90;;;;;;6270027;27;89084;-70
2022/12/26 00:53:20;;;;;;;13.32;11.55;;;23.00;74.90;;;;;;6264141;27;89054;-71
2022/12/26 00:56:23;;;;;;;15.35;11.50;;;23.00;74.70;;;;;;6279951;27;88954;-70
2022/12/26 00:59:25;;;;;;;12.95;11.23;;;23.00;74.70;;;;;;6269846;27;89033;-71
2022/12/26 01:05:45;;;;;;;13.45;9.95;;;23.00;74.70;;;;;;6276074;27;88639;-71
2022/12/26 01:08:47;;;;;;;12.32;9.65;;;23.00;74.80;;;;;;6273860;27;88112;-70
2022/12/26 01:11:50;;;;;;;13.40;10.40;;;22.90;74.70;;;;;;6271213;27;89151;-71
2022/12/26 01:14:52;;;;;;;10.98;9.80;;;22.90;74.70;;;;;;6270668;27;89155;-71
2022/12/26 01:17:54;;;;;;;12.68;9.85;;;22.90;74.60;;;;;;6273879;27;88953;-71
2022/12/26 01:21:00;;;;;;;10.35;9.25;;;22.90;74.70;;;;;;6280519;27;88994;-70
2022/12/26 01:24:02;;;;;;;11.73;9.10;;;22.90;74.50;;;;;;6278428;27;87994;-70
2022/12/26 01:27:06;;;;;;;10.40;9.30;;;22.90;74.60;;;;;;6279779;27;89110;-69
2022/12/26 01:30:09;;;;;;;10.18;8.63;;;22.90;74.50;;;;;;6269886;27;88040;-70
2022/12/26 01:33:11;;;;;;;10.20;8.23;;;22.80;74.40;;;;;;6260354;27;89073;-70
2022/12/26 01:36:13;;;;;;;10.18;8.15;;;22.80;74.20;;;;;;6271364;27;89258;-70
2022/12/26 01:39:16;;;;;;;11.50;8.43;;;22.80;74.20;;;;;;6268618;27;87223;-71
2022/12/26 01:42:22;;;;;;;10.63;8.20;;;22.80;74.20;;;;;;6270716;27;89096;-71
2022/12/26 01:45:28;;;;;;;10.07;8.48;;;22.80;74.10;;;;;;6268782;27;90015;-70
2022/12/26 01:48:33;;;;;;;9.98;8.10;;;22.80;74.00;;;;;;6270536;27;89737;-70
2022/12/26 01:51:39;;;;;;;10.82;8.00;;;22.80;74.00;;;;;;6269374;27;89220;-69
2022/12/26 01:54:46;;;;;;;8.32;7.53;;;22.80;73.80;;;;;;6269502;27;89115;-71
2022/12/26 01:57:56;;;;;;;8.50;7.68;;;22.80;73.80;;;;;;6272060;27;88965;-72
2022/12/26 02:00:59;;;;;;;8.32;7.30;;;22.80;73.80;;;;;;6266913;27;89054;-72
2022/12/26 02:07:26;;;;;;;8.88;7.55;;;22.80;73.90;;;;;;6274447;27;87313;-72
2022/12/26 02:10:31;;;;;;;10.80;7.22;;;22.70;73.80;;;;;;6273789;27;88293;-71
2022/12/26 02:13:36;;;;;;;8.82;7.50;;;22.70;73.70;;;;;;6281609;27;89434;-71
2022/12/26 02:16:40;;;;;;;7.55;6.85;;;22.70;73.50;;;;;;6274955;27;89096;-71
2022/12/26 02:19:51;;;;;;;7.65;6.80;;;22.70;73.50;;;;;;6271688;27;90048;-71
2022/12/26 02:23:28;;;;;;;7.65;6.85;;;22.70;73.40;;;;;;6281683;27;89355;-71
2022/12/26 02:27:08;;;;;;;7.43;6.70;;;22.70;73.40;;;;;;6278074;27;88298;-70
2022/12/26 02:30:30;;;;;;;8.73;7.10;;;22.70;73.30;;;;;;6267616;27;89397;-71
2022/12/26 02:33:40;;;;;;;7.70;6.78;;;22.70;73.20;;;;;;6276182;27;89151;-70
2022/12/26 02:37:04;;;;;;;7.50;6.70;;;22.60;73.20;;;;;;6284011;27;87994;-71
2022/12/26 02:40:25;;;;;;;7.07;6.40;;;22.60;73.20;;;;;;6278160;27;89093;-71
2022/12/26 02:43:35;;;;;;;7.15;6.45;;;22.60;73.10;;;;;;6282597;27;88187;-70
2022/12/26 02:47:03;;;;;;;7.30;5.95;;;22.60;73.00;;;;;;6276085;27;89013;-71
2022/12/26 03:14:02;;;;;;;6.32;5.72;;;22.50;72.50;;;;;;6280362;27;88486;-71
2022/12/26 03:17:21;;;;;;;6.05;5.45;;;22.50;72.70;;;;;;6261696;27;88358;-70
2022/12/26 03:20:27;;;;;;;7.00;5.88;;;22.50;72.50;;;;;;6270625;27;89076;-70
2022/12/26 03:23:32;;;;;;;6.70;6.05;;;22.50;72.50;;;;;;6280726;27;89061;-69
2022/12/26 03:26:40;;;;;;;9.15;6.68;;;22.50;72.50;;;;;;6282195;27;90033;-70
2022/12/26 03:33:01;;;;;;;7.38;6.15;;;22.50;74.30;;;;;;6265618;27;87184;-71
2022/12/26 03:36:05;;;;;;;7.63;6.50;;;22.50;73.70;;;;;;6279280;27;89421;-70
2022/12/26 03:39:17;;;;;;;8.70;7.10;;;22.40;73.30;;;;;;6277486;27;89105;-71
2022/12/26 04:20:16;;;;;;;6.28;5.28;;;22.30;72.10;;;;;;6276036;27;87247;-71
2022/12/26 04:44:06;;;;;;;7.60;5.05;;;22.20;71.60;;;;;;6267769;27;88502;-71
2022/12/26 04:47:08;;;;;;;5.93;5.20;;;22.30;71.70;;;;;;6275889;27;89303;-71
2022/12/26 04:50:13;;;;;;;6.93;5.38;;;22.30;71.80;;;;;;6273274;27;89124;-71
2022/12/26 04:53:15;;;;;;;7.90;5.82;;;22.30;71.70;;;;;;6278848;27;87800;-71
2022/12/26 04:56:17;;;;;;;6.82;5.22;;;22.30;71.60;;;;;;6281660;27;88626;-71
2022/12/26 04:59:21;;;;;;;5.93;5.40;;;22.30;71.60;;;;;;6271927;27;88950;-72
2022/12/26 05:12:25;;;;;;;6.07;5.47;;;22.40;71.30;;;;;;6269868;27;87342;-72
2022/12/26 05:28:40;;;;;;;6.30;5.70;;;22.40;71.30;;;;;;6280862;27;89967;-71
2022/12/26 05:29:00;;;;;;;6.57;5.97;;;22.40;70.80;;;;;;6266573;27;86630;-72
2022/12/26 05:32:03;;;;;;;6.65;5.80;;;22.50;70.70;;;;;;6276717;27;89162;-72
2022/12/26 05:35:05;;;;;;;6.60;5.90;;;22.40;70.60;;;;;;6271844;27;88000;-72
2022/12/26 05:38:09;;;;;;;6.30;5.70;;;22.50;70.60;;;;;;6278966;27;90619;-72
2022/12/26 05:41:11;;;;;;;6.18;5.50;;;22.50;70.50;;;;;;6276128;27;89450;-69
2022/12/26 05:44:13;;;;;;;6.88;6.15;;;22.50;70.50;;;;;;6278873;27;89133;-70
2022/12/26 05:47:17;;;;;;;12.15;7.25;;;22.50;70.50;;;;;;6282703;27;87012;-70
2022/12/26 05:50:19;;;;;;;8.80;6.72;;;22.50;72.20;;;;;;6283542;27;88935;-70
2022/12/26 05:53:21;;;;;;;9.98;6.30;;;22.50;72.20;;;;;;6276107;27;89112;-70
2022/12/26 05:56:23;;;;;;;10.30;6.50;;;22.50;71.50;;;;;;6277486;27;89068;-69
2022/12/26 05:59:25;;;;;;;9.07;6.32;;;22.50;71.10;;;;;;6278337;27;88647;-69
2022/12/26 06:02:31;;;;;;;7.75;6.13;;;22.50;71.00;;;;;;6268200;27;89022;-70
2022/12/26 06:05:33;;;;;;;6.90;6.10;;;22.50;70.70;;;;;;6281971;27;89047;-70
2022/12/26 06:08:35;;;;;;;9.07;6.15;;;22.50;70.60;;;;;;6264340;27;90089;-72
2022/12/26 06:11:37;;;;;;;7.25;6.30;;;22.50;70.60;;;;;;6281021;27;89325;-70
2022/12/26 06:14:39;;;;;;;6.85;6.13;;;22.50;70.50;;;;;;6273234;27;89139;-71
2022/12/26 06:17:42;;;;;;;8.02;6.00;;;22.50;70.50;;;;;;6280059;27;89121;-71
2022/12/26 06:20:44;;;;;;;7.10;5.70;;;22.50;70.50;;;;;;6273641;27;90910;-71
2022/12/26 06:23:48;;;;;;;8.35;5.75;;;22.50;70.30;;;;;;6273231;27;89136;-72
2022/12/26 06:26:50;;;;;;;6.60;5.90;;;22.60;70.20;;;;;;6278796;27;89141;-71
2022/12/26 06:29:52;;;;;;;6.82;6.00;;;22.50;70.10;;;;;;6282310;27;89997;-72
2022/12/26 06:32:55;;;;;;;6.70;5.30;;;22.60;70.00;;;;;;6266016;27;87876;-71
2022/12/26 06:36:03;;;;;;;7.97;5.78;;;22.60;69.80;;;;;;6272721;27;89087;-72
2022/12/26 06:39:05;;;;;;;8.55;5.75;;;22.50;69.70;;;;;;6280062;27;90076;-72
2022/12/26 06:42:08;;;;;;;6.00;5.32;;;22.60;69.70;;;;;;6280774;27;89138;-72
2022/12/26 06:45:11;;;;;;;7.45;5.57;;;22.50;69.60;;;;;;6275138;27;89323;-72
2022/12/26 06:48:14;;;;;;;6.28;5.32;;;22.60;69.50;;;;;;6274566;27;89396;-70
2022/12/26 06:51:18;;;;;;;6.78;5.65;;;22.60;69.40;;;;;;6284458;27;88362;-70
2022/12/26 06:54:20;;;;;;;7.22;5.57;;;22.60;69.30;;;;;;6274631;27;89185;-70
2022/12/26 06:57:22;;;;;;;6.75;5.13;;;22.60;69.20;;;;;;6268197;27;89132;-68
2022/12/26 07:00:25;;;;;;;6.90;5.45;;;22.60;69.30;;;;;;6279025;27;88301;-68
2022/12/26 07:03:28;;;;;;;6.03;5.43;;;22.60;69.60;;;;;;6282054;27;88747;-67
2022/12/26 07:06:32;;;;;;;5.63;5.03;;;22.60;70.00;;;;;;6283075;27;89175;-68
2022/12/26 07:09:34;;;;;;;6.30;5.68;;;22.60;70.30;;;;;;6279150;27;90211;-68
2022/12/26 07:12:36;;;;;;;5.88;5.22;;;22.60;70.50;;;;;;6281100;27;89252;-68
2022/12/26 07:15:39;;;;;;;9.55;5.97;;;22.60;70.60;;;;;;6276279;27;89145;-68
2022/12/26 07:18:43;;;;;;;7.68;5.45;;;22.60;70.80;;;;;;6274428;27;90489;-68
2022/12/26 07:21:45;;;;;;;7.63;5.40;;;22.60;71.00;;;;;;6280668;27;89109;-70
2022/12/26 07:24:47;;;;;;;9.02;6.00;;;22.60;71.10;;;;;;6281919;27;89090;-70
2022/12/26 07:27:53;;;;;;;17.13;6.72;;;22.70;71.30;;;;;;6274431;27;87607;-68
2022/12/26 07:30:56;;;;;;;15.70;6.93;;;22.60;71.80;;;;;;6273999;27;88756;-68
2022/12/26 07:33:59;;;;;;;14.70;6.93;;;22.60;73.20;;;;;;6261660;27;88846;-68
2022/12/26 07:37:01;;;;;;;10.57;6.38;;;22.60;72.80;;;;;;6281676;27;89174;-69
2022/12/26 07:40:04;;;;;;;12.57;6.20;;;22.60;72.50;;;;;;6276619;27;89743;-69
2022/12/26 07:43:06;;;;;;;10.45;6.10;;;22.70;72.00;;;;;;6268707;27;89166;-69
2022/12/26 07:46:09;;;;;;;16.38;6.25;;;22.60;69.90;;;;;;6277274;27;89086;-68
2022/12/26 07:49:13;;;;;;;9.65;6.07;;;22.60;69.90;;;;;;6272260;27;89088;-67
2022/12/26 07:52:15;;;;;;;9.55;5.80;;;22.60;71.60;;;;;;6263419;27;89334;-67
2022/12/26 07:55:17;;;;;;;10.20;5.97;;;22.60;71.80;;;;;;6277699;27;89059;-67
2022/12/26 07:58:19;;;;;;;13.95;6.00;;;22.70;72.30;;;;;;6266005;27;89399;-68
2022/12/26 08:01:21;;;;;;;8.07;5.72;;;22.70;72.80;;;;;;6281141;27;87236;-66
2022/12/26 08:04:25;;;;;;;9.93;5.63;;;22.80;73.10;;;;;;6271857;27;89107;-67
2022/12/26 08:07:27;;;;;;;9.05;5.68;;;22.80;73.20;;;;;;6259450;27;89168;-67
2022/12/26 08:10:29;;;;;;;8.93;5.50;;;22.80;73.30;;;;;;6264143;27;89054;-66
2022/12/26 08:13:31;;;;;;;243.90;125.40;;;22.90;73.50;;;;;;6271984;27;87987;-69
2022/12/26 08:16:33;;;;;;;51.55;32.10;;;22.90;73.40;;;;;;6277811;27;89024;-69
2022/12/26 08:19:37;;;;;;;41.25;25.13;;;22.90;73.00;;;;;;6277269;27;87988;-70
2022/12/26 08:22:39;;;;;;;39.95;24.48;;;22.90;73.00;;;;;;6279164;27;89302;-69
2022/12/26 08:25:41;;;;;;;36.65;22.85;;;22.90;73.00;;;;;;6276595;27;89066;-69
2022/12/26 08:28:43;;;;;;;36.58;21.83;;;22.90;73.20;;;;;;6279153;27;88489;-70
2022/12/26 08:31:45;;;;;;;32.60;20.48;;;22.90;73.30;;;;;;6277983;27;89177;-71
2022/12/26 08:34:49;;;;;;;31.90;19.50;;;22.80;73.30;;;;;;6280908;27;89050;-70
2022/12/26 08:37:51;;;;;;;32.00;19.50;;;22.90;73.50;;;;;;6277680;27;87983;-71
2022/12/26 08:40:56;;;;;;;27.27;17.17;;;22.90;73.70;;;;;;6274124;27;90063;-70
2022/12/26 08:43:58;;;;;;;26.13;16.58;;;22.80;73.70;;;;;;6278093;27;88980;-72
2022/12/26 08:47:00;;;;;;;27.27;16.83;;;22.80;73.80;;;;;;6276878;27;88001;-70
2022/12/26 08:50:04;;;;;;;30.52;16.13;;;22.80;73.80;;;;;;6266252;27;89113;-71
2022/12/26 08:53:06;;;;;;;21.25;15.57;;;22.80;73.90;;;;;;6278747;27;89351;-71
2022/12/26 08:56:12;;;;;;;26.67;15.23;;;22.90;74.10;;;;;;6271289;27;89600;-69
2022/12/26 08:59:14;;;;;;;21.88;15.18;;;22.90;74.10;;;;;;6271954;27;89082;-69
2022/12/26 09:02:16;;;;;;;21.45;14.60;;;22.90;74.20;;;;;;6281788;27;87521;-72
2022/12/26 09:05:20;;;;;;;21.77;14.32;;;22.90;74.40;;;;;;6281030;27;89257;-70
2022/12/26 09:08:22;;;;;;;24.80;14.45;;;22.90;74.50;;;;;;6268698;27;89326;-68
2022/12/26 09:11:26;;;;;;;19.80;13.50;;;22.90;74.50;;;;;;6274654;27;89164;-68
2022/12/26 09:14:28;;;;;;;19.67;13.55;;;22.90;74.60;;;;;;6264991;27;89027;-70
2022/12/26 09:17:30;;;;;;;20.55;13.38;;;22.90;74.70;;;;;;6266702;27;89051;-70
2022/12/26 09:20:34;;;;;;;19.83;13.20;;;22.90;74.70;;;;;;6278838;27;89256;-70
2022/12/26 09:23:37;;;;;;;18.30;12.75;;;22.90;74.80;;;;;;6280588;27;90090;-70
2022/12/26 09:26:39;;;;;;;17.95;12.68;;;22.90;74.80;;;;;;6280312;27;89121;-71
2022/12/26 09:29:41;;;;;;;19.02;12.57;;;22.90;74.80;;;;;;6278655;27;87906;-70
2022/12/26 09:32:43;;;;;;;18.77;12.45;;;22.90;74.90;;;;;;6279482;27;88281;-71
2022/12/26 09:35:46;;;;;;;17.90;12.35;;;23.00;75.00;;;;;;6275454;27;87960;-70
2022/12/26 09:38:49;;;;;;;16.50;11.57;;;23.00;75.00;;;;;;6259687;27;88376;-70
2022/12/26 09:42:01;;;;;;;19.15;10.93;;;23.00;75.10;;;;;;6273598;27;91621;-69
2022/12/26 09:45:11;;;;;;;18.33;11.48;;;23.00;75.70;;;;;;6273233;27;89479;-64
2022/12/26 09:48:19;;;;;;;16.40;11.07;;;23.00;75.90;;;;;;6258184;27;88277;-70
2022/12/26 09:51:23;;;;;;;15.75;10.77;;;23.00;75.90;;;;;;6272681;27;89145;-69
2022/12/26 09:54:31;;;;;;;17.60;11.48;;;23.00;75.90;;;;;;6262964;27;89432;-69
2022/12/26 09:57:40;;;;;;;18.00;10.88;;;23.00;76.30;;;;;;6266840;27;89212;-68
2022/12/26 10:00:50;;;;;;;16.63;10.60;;;23.00;76.50;;;;;;6278663;27;89136;-70
2022/12/26 10:03:56;;;;;;;15.50;10.50;;;23.00;76.60;;;;;;6278902;27;88110;-66
2022/12/26 10:07:10;;;;;;;19.55;9.82;;;23.10;76.80;;;;;;6258705;27;87949;-67
2022/12/26 10:10:14;;;;;;;18.10;11.05;;;23.10;78.40;;;;;;6261519;27;89469;-68
2022/12/26 10:13:25;;;;;;;98.70;49.58;;;23.00;79.90;;;;;;6265127;27;89962;-69
2022/12/26 10:16:41;;;;;;;649.03;400.90;;;23.10;84.20;;;;;;6275624;27;89130;-69
2022/12/26 10:20:00;;;;;;;157.18;92.05;;;23.20;87.50;;;;;;6266603;27;89218;-69
2022/12/26 10:23:26;;;;;;;109.65;61.50;;;23.30;82.30;;;;;;6260566;27;89011;-67
2022/12/26 10:26:32;;;;;;;76.63;44.17;;;23.30;79.10;;;;;;6256742;27;89148;-69
2022/12/26 10:29:39;;;;;;;63.47;35.42;;;23.40;78.60;;;;;;6278094;27;89126;-69
2022/12/26 10:32:45;;;;;;;53.05;29.80;;;23.40;78.00;;;;;;6275567;27;89210;-69
2022/12/26 10:35:48;;;;;;;49.53;26.33;;;23.40;77.60;;;;;;6273679;27;88649;-69
2022/12/26 10:38:55;;;;;;;38.70;23.38;;;23.30;77.30;;;;;;6275074;27;89484;-70
2022/12/26 10:42:00;;;;;;;35.13;22.30;;;23.30;77.10;;;;;;6273489;27;89215;-68
2022/12/26 10:45:12;;;;;;;35.80;19.33;;;23.30;77.10;;;;;;6278916;27;89915;-69
2022/12/26 10:48:15;;;;;;;32.85;18.67;;;23.30;77.10;;;;;;6280055;27;87978;-69
2022/12/26 10:51:18;;;;;;;28.48;18.33;;;23.20;77.30;;;;;;6278829;27;89116;-69
2022/12/26 10:54:22;;;;;;;28.23;17.13;;;23.10;77.40;;;;;;6281593;27;89099;-70
2022/12/26 10:57:26;;;;;;;34.38;20.30;;;23.10;77.40;;;;;;6281838;27;89086;-70
2022/12/26 11:00:29;;;;;;;33.83;20.63;;;23.10;77.30;;;;;;6279584;27;88868;-69
2022/12/26 11:03:31;;;;;;;31.50;19.05;;;23.10;77.30;;;;;;6273043;27;89110;-70
2022/12/26 11:06:36;;;;;;;32.05;20.10;;;23.10;76.90;;;;;;6278884;27;88382;-70
2022/12/26 11:09:44;;;;;;;31.00;19.40;;;23.00;76.00;;;;;;6264090;27;89470;-69
2022/12/26 11:12:49;;;;;;;28.95;18.20;;;23.00;76.00;;;;;;6271591;27;89261;-70
2022/12/26 11:15:53;;;;;;;28.77;16.95;;;23.00;76.50;;;;;;6277152;27;90067;-70
2022/12/26 11:18:56;;;;;;;25.95;16.17;;;22.90;76.10;;;;;;6280319;27;89133;-70
2022/12/26 11:22:26;;;;;;;26.08;15.55;;;22.90;76.60;;;;;;6282196;27;88987;-69
2022/12/26 11:25:33;;;;;;;25.92;14.93;;;22.90;76.40;;;;;;6222622;27;89034;-69
2022/12/26 11:28:37;;;;;;;20.23;13.65;;;22.90;76.40;;;;;;6279266;27;88235;-69
2022/12/26 11:31:40;;;;;;;19.85;13.90;;;22.90;74.40;;;;;;6281258;27;88563;-69
2022/12/26 11:34:46;;;;;;;18.95;13.52;;;22.90;74.20;;;;;;6279674;27;89286;-69
2022/12/26 11:37:52;;;;;;;19.45;13.45;;;22.90;74.20;;;;;;6280956;27;88576;-70
2022/12/26 11:44:19;;;;;;;19.70;13.52;;;22.80;74.50;;;;;;6270867;27;89430;-69
2022/12/26 11:47:23;;;;;;;18.45;12.95;;;22.90;75.00;;;;;;6276068;27;89994;-69
2022/12/26 11:50:28;;;;;;;20.13;12.95;;;22.80;74.70;;;;;;6277844;27;89117;-69
2022/12/26 11:53:33;;;;;;;18.60;12.23;;;22.80;74.60;;;;;;6281618;27;89001;-70
2022/12/26 11:56:37;;;;;;;18.67;11.00;;;22.80;75.40;;;;;;6276143;27;88933;-70
2022/12/26 11:59:39;;;;;;;16.52;11.05;;;22.80;74.90;;;;;;6278407;27;90336;-70
2022/12/26 12:02:42;;;;;;;14.00;9.75;;;22.80;75.60;;;;;;6281042;27;89361;-69
2022/12/26 12:05:50;;;;;;;15.20;9.90;;;22.80;74.60;;;;;;6274121;27;89081;-69
2022/12/26 12:09:02;;;;;;;14.65;9.07;;;22.80;74.60;;;;;;6279119;27;88469;-69
2022/12/26 12:12:13;;;;;;;15.57;9.18;;;22.80;74.80;;;;;;6275539;27;89031;-70
2022/12/26 12:15:23;;;;;;;18.15;9.57;;;22.80;75.30;;;;;;6273314;27;89425;-69
2022/12/26 12:18:39;;;;;;;18.13;9.50;;;22.90;76.60;;;;;;6269558;27;89948;-69
2022/12/26 12:21:44;;;;;;;21.58;10.38;;;22.80;77.70;;;;;;6277493;27;89208;-67
2022/12/26 12:25:16;;;;;;;20.27;10.10;;;22.90;78.30;;;;;;6279869;27;88890;-68
2022/12/26 12:28:52;;;;;;;17.30;9.82;;;22.90;78.80;;;;;;6265317;27;89090;-69
2022/12/26 12:32:07;;;;;;;19.25;9.18;;;23.00;78.60;;;;;;6255362;27;89008;-70
2022/12/26 12:35:41;;;;;;;15.73;9.32;;;23.00;78.30;;;;;;6273717;27;89085;-69
2022/12/26 12:38:58;;;;;;;18.20;10.80;;;23.00;78.20;;;;;;6256889;27;89113;-71
2022/12/26 12:42:10;;;;;;;29.52;15.35;;;23.00;77.90;;;;;;6275134;27;88108;-70
2022/12/26 12:45:33;;;;;;;31.40;18.73;;;23.00;77.80;;;;;;6275776;27;89178;-68
2022/12/26 12:48:52;;;;;;;33.70;20.00;;;23.00;77.70;;;;;;6277857;27;89072;-70
2022/12/26 12:52:07;;;;;;;28.25;17.75;;;23.00;77.30;;;;;;6273893;27;89993;-69
2022/12/26 12:55:39;;;;;;;24.50;15.45;;;23.00;76.30;;;;;;6268819;27;89007;-69
2022/12/26 12:58:49;;;;;;;28.95;15.30;;;23.00;75.50;;;;;;6255585;27;89108;-69
2022/12/26 13:01:58;;;;;;;23.63;14.60;;;23.00;75.70;;;;;;6280516;27;89024;-70
2022/12/26 13:05:12;;;;;;;25.77;14.95;;;23.00;76.90;;;;;;6278457;27;89013;-69
2022/12/26 13:08:21;;;;;;;20.83;14.18;;;23.00;76.00;;;;;;6280401;27;89061;-69
2022/12/26 13:11:26;;;;;;;19.63;14.00;;;23.00;76.00;;;;;;6279304;27;89002;-70
2022/12/26 13:14:34;;;;;;;19.52;12.85;;;23.00;75.80;;;;;;6280587;27;88378;-69
2022/12/26 13:17:45;;;;;;;19.60;12.50;;;23.00;75.70;;;;;;6273501;27;89046;-69
2022/12/26 13:20:50;;;;;;;18.23;12.52;;;23.00;75.70;;;;;;6270274;27;89255;-69
2022/12/26 13:27:24;;;;;;;18.45;11.98;;;23.00;75.70;;;;;;6271267;27;87260;-68
2022/12/26 13:30:26;;;;;;;14.50;11.30;;;23.00;75.60;;;;;;6280042;27;89331;-68
2022/12/26 13:33:30;;;;;;;14.68;10.80;;;23.00;75.60;;;;;;6279059;27;89520;-68
2022/12/26 13:36:42;;;;;;;14.75;10.85;;;23.00;75.50;;;;;;6279632;27;89378;-69
2022/12/26 13:39:44;;;;;;;14.93;10.30;;;23.00;75.50;;;;;;6280188;27;89342;-70
2022/12/26 13:46:53;;;;;;;14.68;9.70;;;23.00;75.40;;;;;;6278970;27;86598;-69
2022/12/26 13:49:56;;;;;;;11.50;9.38;;;23.00;75.20;;;;;;6269277;27;89363;-69
2022/12/26 13:52:59;;;;;;;14.10;8.90;;;22.90;75.00;;;;;;6268391;27;89409;-68
2022/12/26 13:56:02;;;;;;;12.93;9.13;;;22.90;75.00;;;;;;6279397;27;90077;-69
2022/12/26 13:59:13;;;;;;;12.40;9.20;;;22.90;75.00;;;;;;6280780;27;89043;-69
2022/12/26 14:02:42;;;;;;;12.10;8.55;;;22.90;75.00;;;;;;6279557;27;89346;-69
2022/12/26 14:06:17;;;;;;;12.48;8.63;;;22.90;74.90;;;;;;6278660;27;89115;-70
2022/12/26 14:09:57;;;;;;;11.05;8.02;;;22.90;74.80;;;;;;6271634;27;89418;-69
2022/12/26 14:13:07;;;;;;;11.45;8.05;;;22.90;74.70;;;;;;6253505;27;89433;-68
2022/12/26 14:16:19;;;;;;;9.68;7.60;;;22.90;74.70;;;;;;6271507;27;87777;-69
2022/12/26 14:19:39;;;;;;;10.52;7.47;;;22.90;74.60;;;;;;6271262;27;87225;-69
2022/12/26 14:22:52;;;;;;;9.63;7.45;;;22.90;74.50;;;;;;6280376;27;89076;-67
2022/12/26 14:26:03;;;;;;;8.63;7.38;;;22.90;74.50;;;;;;6276943;27;89051;-67
2022/12/26 14:29:13;;;;;;;9.25;7.60;;;22.90;74.50;;;;;;6281650;27;90266;-67
2022/12/26 14:32:28;;;;;;;9.70;7.07;;;22.90;74.40;;;;;;6271388;27;87971;-67
2022/12/26 14:35:35;;;;;;;9.10;6.85;;;22.90;74.40;;;;;;6284635;27;88039;-67
2022/12/26 14:38:47;;;;;;;7.95;6.45;;;22.90;75.30;;;;;;6283925;27;88000;-67
2022/12/26 14:45:49;;;;;;;6.75;6.05;;;22.90;74.20;;;;;;6285400;27;87316;-67
2022/12/26 14:48:57;;;;;;;8.68;6.05;;;22.90;74.30;;;;;;6276600;27;89082;-67
2022/12/26 14:52:42;;;;;;;7.03;6.07;;;22.90;74.30;;;;;;6279674;27;88435;-67
2022/12/26 14:55:50;;;;;;;7.55;6.10;;;22.90;74.40;;;;;;6284802;27;89139;-67
2022/12/26 14:58:53;;;;;;;7.60;5.95;;;22.90;74.40;;;;;;6281049;27;87919;-68
2022/12/26 15:02:09;;;;;;;7.07;5.60;;;22.90;74.40;;;;;;6280417;27;89001;-67
2022/12/26 15:05:17;;;;;;;7.10;5.75;;;22.90;74.40;;;;;;6271427;27;89114;-67
2022/12/26 15:08:39;;;;;;;5.97;5.32;;;22.90;74.40;;;;;;6284473;27;87364;-68
2022/12/26 15:12:07;;;;;;;6.30;5.45;;;22.90;74.40;;;;;;6271719;27;89068;-67
2022/12/26 15:15:31;;;;;;;6.63;5.32;;;22.90;74.50;;;;;;6259019;27;89025;-67
2022/12/26 15:19:08;;;;;;;6.28;5.03;;;22.80;74.50;;;;;;6283141;27;89170;-67
2022/12/26 15:22:43;;;;;;;5.88;5.03;;;22.80;74.50;;;;;;6276106;27;88893;-67
2022/12/26 15:26:15;;;;;;;7.22;5.20;;;22.80;74.50;;;;;;6269585;27;88722;-69
2022/12/26 15:29:58;;;;;;;6.05;5.10;;;22.90;74.80;;;;;;6280259;27;89653;-68
2022/12/26 15:33:05;;;;;;;8.75;5.10;;;22.90;75.20;;;;;;6264181;27;89076;-69
2022/12/26 15:36:19;;;;;;;6.65;5.47;;;22.90;75.50;;;;;;6272460;27;90403;-68
2022/12/26 15:39:30;;;;;;;6.65;5.18;;;22.90;76.10;;;;;;6279476;27;89536;-69
2022/12/26 15:42:44;;;;;;;7.85;5.20;;;22.90;75.50;;;;;;6280990;27;89025;-67
2022/12/26 15:45:53;;;;;;;7.25;5.15;;;22.90;75.50;;;;;;6279039;27;89191;-66
2022/12/26 15:49:13;;;;;;;7.78;4.70;;;22.90;76.40;;;;;;6280105;27;88134;-66
2022/12/26 15:52:23;;;;;;;8.77;5.05;;;22.90;76.70;;;;;;6282359;27;89085;-66
2022/12/26 15:55:37;;;;;;;7.30;4.88;;;22.90;77.20;;;;;;6282925;27;88079;-67
2022/12/26 15:59:00;;;;;;;7.38;4.85;;;23.00;77.70;;;;;;6282345;27;88090;-68
2022/12/26 16:02:12;;;;;;;6.05;4.22;;;22.90;78.00;;;;;;6270020;27;89418;-66
2022/12/26 16:05:51;;;;;;;7.15;4.55;;;23.00;78.50;;;;;;6264330;27;89030;-67
2022/12/26 16:09:15;;;;;;;5.90;4.38;;;22.90;78.60;;;;;;6270427;27;90078;-68
2022/12/26 16:12:24;;;;;;;7.22;4.25;;;22.90;78.80;;;;;;6276441;27;89069;-67
2022/12/26 16:15:29;;;;;;;5.25;4.43;;;22.90;79.00;;;;;;6282473;27;89031;-65
2022/12/26 16:18:33;;;;;;;6.72;4.53;;;22.90;79.10;;;;;;6270827;27;89657;-67
2022/12/26 16:24:55;;;;;;;6.85;4.38;;;22.90;79.40;;;;;;6276594;27;87314;-67
2022/12/26 16:28:00;;;;;;;6.93;4.30;;;23.00;79.70;;;;;;6281989;27;89451;-68
2022/12/26 16:31:02;;;;;;;6.30;4.60;;;23.00;80.00;;;;;;6267092;27;88468;-67
2022/12/26 16:34:06;;;;;;;6.38;4.20;;;23.00;80.30;;;;;;6272982;27;89537;-67
2022/12/26 16:37:14;;;;;;;5.47;4.55;;;23.00;80.60;;;;;;6277829;27;89232;-67
2022/12/26 16:40:21;;;;;;;7.05;4.05;;;23.00;80.30;;;;;;6276198;27;90107;-67
2022/12/26 16:43:26;;;;;;;4.65;3.78;;;23.00;80.40;;;;;;6282256;27;89090;-67
2022/12/26 16:46:30;;;;;;;5.28;3.88;;;23.00;80.30;;;;;;6276870;27;88873;-67
2022/12/26 16:49:34;;;;;;;4.47;3.95;;;23.00;80.30;;;;;;6277135;27;89234;-67
2022/12/26 16:52:38;;;;;;;5.32;3.83;;;23.00;80.20;;;;;;6280428;27;89465;-69
2022/12/26 16:55:46;;;;;;;7.22;3.88;;;23.00;80.30;;;;;;6280865;27;89146;-67
2022/12/26 16:58:49;;;;;;;5.78;3.80;;;23.00;80.90;;;;;;6279025;27;89076;-70
2022/12/26 17:01:55;;;;;;;8.60;4.43;;;23.00;81.10;;;;;;6270109;27;88294;-67
2022/12/26 17:05:02;;;;;;;10.27;4.70;;;23.00;81.10;;;;;;6281020;27;89129;-68
2022/12/26 17:08:05;;;;;;;7.30;4.70;;;23.00;80.80;;;;;;6277982;27;89231;-68
2022/12/26 17:11:07;;;;;;;8.40;4.50;;;23.00;81.00;;;;;;6267529;27;90040;-69
2022/12/26 17:14:18;;;;;;;11.00;5.78;;;23.10;80.80;;;;;;6271619;27;88922;-69
2022/12/26 17:17:30;;;;;;;13.05;6.85;;;23.10;82.00;;;;;;6258224;27;89084;-69
2022/12/26 17:20:39;;;;;;;17.13;7.18;;;23.50;81.30;;;;;;6271630;27;88273;-69
2022/12/26 17:23:42;;;;;;;14.50;7.40;;;23.70;80.50;;;;;;6280669;27;88800;-69
2022/12/26 17:26:49;;;;;;;19.63;8.50;;;23.90;80.20;;;;;;6281005;27;89210;-69
2022/12/26 17:29:54;;;;;;;14.30;8.55;;;23.90;79.80;;;;;;6267478;27;89172;-68
2022/12/26 17:33:02;;;;;;;17.98;9.60;;;23.90;79.50;;;;;;6281293;27;88209;-67
2022/12/26 17:36:10;;;;;;;19.23;10.50;;;23.90;79.60;;;;;;6278865;27;89179;-69
2022/12/26 17:39:20;;;;;;;24.48;9.80;;;23.90;81.20;;;;;;6263128;27;89195;-68
2022/12/26 17:42:22;;;;;;;11.65;7.30;;;23.70;83.20;;;;;;6277265;27;90090;-68
2022/12/26 17:45:26;;;;;;;8.50;5.38;;;23.70;77.40;;;;;;6283466;27;89548;-69
2022/12/26 17:48:28;;;;;;;5.88;3.88;;;23.50;76.10;;;;;;6278000;27;88012;-70
2022/12/26 17:51:33;;;;;;;6.13;4.00;;;23.40;75.00;;;;;;6272754;27;89022;-69
2022/12/26 17:54:35;;;;;;;6.35;4.32;;;23.30;75.40;;;;;;6280120;27;88908;-70
2022/12/26 17:57:37;;;;;;;8.40;5.15;;;23.30;75.70;;;;;;6278314;27;89107;-69
2022/12/26 18:00:40;;;;;;;11.13;5.72;;;23.20;76.50;;;;;;6278204;27;89147;-69
2022/12/26 18:03:43;;;;;;;11.05;5.63;;;23.20;76.90;;;;;;6283379;27;88400;-69
2022/12/26 18:06:46;;;;;;;11.05;6.18;;;23.20;77.30;;;;;;6257757;27;87953;-70
2022/12/26 18:09:49;;;;;;;8.55;5.70;;;23.20;77.90;;;;;;6280272;27;87537;-69
2022/12/26 18:12:52;;;;;;;8.40;5.93;;;23.30;78.00;;;;;;6281553;27;90637;-70
2022/12/26 18:15:56;;;;;;;8.77;5.35;;;23.20;78.10;;;;;;6268849;27;87996;-69